sensor_id;sensor_type;location;lat;lon;timestamp;pressure;altitude;pressure_sealevel;temperature;humidity
50302;BME280;36550;50.472;19.744;2023-07-16T00:00:20;97883.59;;;20.17;69.00
50302;BME280;36550;50.472;19.744;2023-07-16T00:03:04;97882.10;;;20.14;69.07
50302;BME280;36550;50.472;19.744;2023-07-16T00:05:50;97885.31;;;20.11;69.15
50302;BME280;36550;50.472;19.744;2023-07-16T00:08:35;97890.08;;;20.08;69.43
50302;BME280;36550;50.472;19.744;2023-07-16T00:11:19;97888.19;;;20.04;69.50
50302;BME280;36550;50.472;19.744;2023-07-16T00:14:04;97885.73;;;19.98;69.63
50302;BME280;36550;50.472;19.744;2023-07-16T00:16:49;97891.08;;;19.90;69.61
50302;BME280;36550;50.472;19.744;2023-07-16T00:19:33;97885.63;;;19.86;69.77
50302;BME280;36550;50.472;19.744;2023-07-16T00:22:17;97886.08;;;19.82;69.97
50302;BME280;36550;50.472;19.744;2023-07-16T00:25:01;97886.56;;;19.79;70.08
50302;BME280;36550;50.472;19.744;2023-07-16T00:27:46;97887.70;;;19.77;70.41
50302;BME280;36550;50.472;19.744;2023-07-16T00:30:30;97885.60;;;19.74;70.44
50302;BME280;36550;50.472;19.744;2023-07-16T00:33:14;97892.02;;;19.71;70.55
50302;BME280;36550;50.472;19.744;2023-07-16T00:35:59;97888.64;;;19.67;70.70
50302;BME280;36550;50.472;19.744;2023-07-16T00:38:44;97882.39;;;19.63;70.66
50302;BME280;36550;50.472;19.744;2023-07-16T00:41:29;97882.71;;;19.59;70.60
50302;BME280;36550;50.472;19.744;2023-07-16T00:44:13;97881.27;;;19.54;70.65
50302;BME280;36550;50.472;19.744;2023-07-16T00:46:57;97877.65;;;19.49;70.73
50302;BME280;36550;50.472;19.744;2023-07-16T00:49:41;97869.85;;;19.41;70.78
50302;BME280;36550;50.472;19.744;2023-07-16T00:52:25;97866.21;;;19.34;70.88
50302;BME280;36550;50.472;19.744;2023-07-16T00:55:09;97864.34;;;19.29;71.09
50302;BME280;36550;50.472;19.744;2023-07-16T00:57:53;97863.52;;;19.25;71.48
50302;BME280;36550;50.472;19.744;2023-07-16T01:00:40;97864.64;;;19.21;71.36
50302;BME280;36550;50.472;19.744;2023-07-16T01:03:25;97859.88;;;19.17;71.39
50302;BME280;36550;50.472;19.744;2023-07-16T01:06:15;97861.16;;;19.13;71.73
50302;BME280;36550;50.472;19.744;2023-07-16T01:09:07;97857.79;;;19.09;71.95
50302;BME280;36550;50.472;19.744;2023-07-16T01:11:51;97857.84;;;19.06;72.04
50302;BME280;36550;50.472;19.744;2023-07-16T01:14:38;97857.77;;;19.00;72.06
50302;BME280;36550;50.472;19.744;2023-07-16T01:17:23;97856.19;;;18.96;72.16
50302;BME280;36550;50.472;19.744;2023-07-16T01:20:07;97853.75;;;18.92;72.20
50302;BME280;36550;50.472;19.744;2023-07-16T01:23:08;97851.94;;;18.87;72.17
50302;BME280;36550;50.472;19.744;2023-07-16T01:26:08;97845.69;;;18.83;72.44
50302;BME280;36550;50.472;19.744;2023-07-16T01:32:11;97853.61;;;18.74;72.84
50302;BME280;36550;50.472;19.744;2023-07-16T01:34:56;97858.34;;;18.71;72.88
50302;BME280;36550;50.472;19.744;2023-07-16T01:37:41;97859.98;;;18.69;72.92
50302;BME280;36550;50.472;19.744;2023-07-16T01:40:26;97852.08;;;18.65;72.80
50302;BME280;36550;50.472;19.744;2023-07-16T01:43:10;97846.27;;;18.59;72.97
50302;BME280;36550;50.472;19.744;2023-07-16T01:45:54;97844.52;;;18.54;73.02
50302;BME280;36550;50.472;19.744;2023-07-16T01:48:38;97843.71;;;18.48;73.03
50302;BME280;36550;50.472;19.744;2023-07-16T01:51:22;97842.03;;;18.44;73.19
50302;BME280;36550;50.472;19.744;2023-07-16T01:54:06;97840.08;;;18.39;73.39
50302;BME280;36550;50.472;19.744;2023-07-16T01:56:50;97842.77;;;18.36;73.50
50302;BME280;36550;50.472;19.744;2023-07-16T01:59:35;97841.29;;;18.34;73.72
50302;BME280;36550;50.472;19.744;2023-07-16T02:02:19;97837.61;;;18.30;73.56
50302;BME280;36550;50.472;19.744;2023-07-16T02:05:03;97831.95;;;18.25;73.66
50302;BME280;36550;50.472;19.744;2023-07-16T02:07:47;97830.64;;;18.20;73.75
50302;BME280;36550;50.472;19.744;2023-07-16T02:10:32;97838.92;;;18.17;73.63
50302;BME280;36550;50.472;19.744;2023-07-16T02:13:16;97838.74;;;18.10;73.86
50302;BME280;36550;50.472;19.744;2023-07-16T02:16:00;97839.32;;;18.07;73.92
50302;BME280;36550;50.472;19.744;2023-07-16T02:18:44;97835.57;;;18.06;74.05
50302;BME280;36550;50.472;19.744;2023-07-16T02:21:28;97836.87;;;18.04;74.37
50302;BME280;36550;50.472;19.744;2023-07-16T02:24:12;97841.84;;;18.01;74.17
50302;BME280;36550;50.472;19.744;2023-07-16T02:26:56;97838.02;;;17.98;74.35
50302;BME280;36550;50.472;19.744;2023-07-16T02:29:40;97834.77;;;17.96;74.48
50302;BME280;36550;50.472;19.744;2023-07-16T02:32:25;97828.20;;;17.93;74.51
50302;BME280;36550;50.472;19.744;2023-07-16T02:35:09;97829.77;;;17.91;74.72
50302;BME280;36550;50.472;19.744;2023-07-16T02:37:54;97836.23;;;17.88;74.53
50302;BME280;36550;50.472;19.744;2023-07-16T02:40:46;97835.90;;;17.85;74.71
50302;BME280;36550;50.472;19.744;2023-07-16T02:43:30;97834.48;;;17.82;74.88
50302;BME280;36550;50.472;19.744;2023-07-16T02:46:15;97836.66;;;17.81;74.84
50302;BME280;36550;50.472;19.744;2023-07-16T02:48:59;97835.52;;;17.80;75.07
50302;BME280;36550;50.472;19.744;2023-07-16T02:51:43;97835.21;;;17.78;75.29
50302;BME280;36550;50.472;19.744;2023-07-16T02:54:27;97839.26;;;17.78;75.38
50302;BME280;36550;50.472;19.744;2023-07-16T02:57:11;97839.84;;;17.77;75.53
50302;BME280;36550;50.472;19.744;2023-07-16T02:59:55;97836.39;;;17.78;75.53
50302;BME280;36550;50.472;19.744;2023-07-16T03:02:39;97835.66;;;17.77;75.63
50302;BME280;36550;50.472;19.744;2023-07-16T03:05:25;97838.70;;;17.76;75.62
50302;BME280;36550;50.472;19.744;2023-07-16T03:08:09;97834.56;;;17.71;75.52
50302;BME280;36550;50.472;19.744;2023-07-16T03:10:53;97831.94;;;17.68;75.74
50302;BME280;36550;50.472;19.744;2023-07-16T03:13:37;97835.07;;;17.68;75.96
50302;BME280;36550;50.472;19.744;2023-07-16T03:16:20;97838.33;;;17.71;76.09
50302;BME280;36550;50.472;19.744;2023-07-16T03:19:06;97841.52;;;17.71;75.93
50302;BME280;36550;50.472;19.744;2023-07-16T03:21:50;97846.76;;;17.69;75.97
50302;BME280;36550;50.472;19.744;2023-07-16T03:24:35;97853.65;;;17.69;75.98
50302;BME280;36550;50.472;19.744;2023-07-16T03:27:19;97853.73;;;17.71;76.10
50302;BME280;36550;50.472;19.744;2023-07-16T03:30:03;97849.03;;;17.77;76.14
50302;BME280;36550;50.472;19.744;2023-07-16T03:32:48;97850.98;;;17.82;76.09
50302;BME280;36550;50.472;19.744;2023-07-16T03:35:32;97849.53;;;17.84;76.10
50302;BME280;36550;50.472;19.744;2023-07-16T03:38:16;97849.48;;;17.83;76.01
50302;BME280;36550;50.472;19.744;2023-07-16T03:41:00;97850.87;;;17.85;76.07
50302;BME280;36550;50.472;19.744;2023-07-16T03:43:44;97847.77;;;17.87;76.18
50302;BME280;36550;50.472;19.744;2023-07-16T03:46:29;97846.02;;;17.91;76.33
50302;BME280;36550;50.472;19.744;2023-07-16T03:49:13;97845.08;;;17.98;76.55
50302;BME280;36550;50.472;19.744;2023-07-16T03:51:57;97845.11;;;18.04;76.71
50302;BME280;36550;50.472;19.744;2023-07-16T03:54:41;97843.81;;;18.08;76.78
50302;BME280;36550;50.472;19.744;2023-07-16T03:57:27;97840.86;;;18.15;76.93
50302;BME280;36550;50.472;19.744;2023-07-16T04:00:11;97839.66;;;18.24;76.90
50302;BME280;36550;50.472;19.744;2023-07-16T04:02:55;97841.98;;;18.33;77.16
50302;BME280;36550;50.472;19.744;2023-07-16T04:05:40;97844.48;;;18.40;77.11
50302;BME280;36550;50.472;19.744;2023-07-16T04:08:23;97846.48;;;18.47;77.20
50302;BME280;36550;50.472;19.744;2023-07-16T04:11:07;97850.60;;;18.53;77.31
50302;BME280;36550;50.472;19.744;2023-07-16T04:13:52;97848.66;;;18.58;77.43
50302;BME280;36550;50.472;19.744;2023-07-16T04:16:36;97846.01;;;18.64;77.41
50302;BME280;36550;50.472;19.744;2023-07-16T04:19:20;97843.55;;;18.69;77.48
50302;BME280;36550;50.472;19.744;2023-07-16T04:22:04;97847.04;;;18.73;77.44
50302;BME280;36550;50.472;19.744;2023-07-16T04:24:48;97844.83;;;18.78;77.51
50302;BME280;36550;50.472;19.744;2023-07-16T04:27:33;97844.73;;;18.82;77.50
50302;BME280;36550;50.472;19.744;2023-07-16T04:30:18;97850.54;;;18.88;77.64
50302;BME280;36550;50.472;19.744;2023-07-16T04:33:03;97854.86;;;18.93;77.89
50302;BME280;36550;50.472;19.744;2023-07-16T04:35:47;97859.02;;;18.99;77.90
50302;BME280;36550;50.472;19.744;2023-07-16T04:38:31;97863.38;;;19.05;78.00
50302;BME280;36550;50.472;19.744;2023-07-16T04:41:16;97862.94;;;19.10;78.23
50302;BME280;36550;50.472;19.744;2023-07-16T04:44:00;97866.08;;;19.15;78.27
50302;BME280;36550;50.472;19.744;2023-07-16T04:46:44;97873.55;;;19.23;78.47
50302;BME280;36550;50.472;19.744;2023-07-16T04:49:28;97873.75;;;19.29;78.52
50302;BME280;36550;50.472;19.744;2023-07-16T04:52:12;97878.49;;;19.37;78.75
50302;BME280;36550;50.472;19.744;2023-07-16T04:54:56;97880.94;;;19.46;78.84
50302;BME280;36550;50.472;19.744;2023-07-16T04:57:41;97886.20;;;19.55;79.15
50302;BME280;36550;50.472;19.744;2023-07-16T05:00:25;97884.55;;;19.64;79.20
50302;BME280;36550;50.472;19.744;2023-07-16T05:03:09;97886.85;;;19.74;79.41
50302;BME280;36550;50.472;19.744;2023-07-16T05:05:53;97892.11;;;19.92;79.60
50302;BME280;36550;50.472;19.744;2023-07-16T05:08:37;97890.34;;;20.13;79.74
50302;BME280;36550;50.472;19.744;2023-07-16T05:11:21;97893.13;;;20.34;80.02
50302;BME280;36550;50.472;19.744;2023-07-16T05:14:05;97893.10;;;20.57;80.19
50302;BME280;36550;50.472;19.744;2023-07-16T05:16:50;97895.48;;;20.79;80.44
50302;BME280;36550;50.472;19.744;2023-07-16T05:19:34;97892.28;;;21.02;80.49
50302;BME280;36550;50.472;19.744;2023-07-16T05:22:18;97895.39;;;21.25;80.46
50302;BME280;36550;50.472;19.744;2023-07-16T05:25:03;97888.13;;;21.48;80.39
50302;BME280;36550;50.472;19.744;2023-07-16T05:27:47;97891.53;;;21.72;80.24
50302;BME280;36550;50.472;19.744;2023-07-16T05:30:31;97892.63;;;21.94;80.00
50302;BME280;36550;50.472;19.744;2023-07-16T05:33:16;97894.73;;;22.15;79.74
50302;BME280;36550;50.472;19.744;2023-07-16T05:36:00;97893.59;;;22.37;79.49
50302;BME280;36550;50.472;19.744;2023-07-16T05:38:44;97894.05;;;22.60;79.34
50302;BME280;36550;50.472;19.744;2023-07-16T05:41:29;97893.39;;;22.84;78.98
50302;BME280;36550;50.472;19.744;2023-07-16T05:44:13;97898.79;;;23.11;78.31
50302;BME280;36550;50.472;19.744;2023-07-16T05:46:57;97896.89;;;23.43;77.88
50302;BME280;36550;50.472;19.744;2023-07-16T05:49:42;97900.94;;;23.83;77.33
50302;BME280;36550;50.472;19.744;2023-07-16T05:52:26;97901.42;;;24.29;76.53
50302;BME280;36550;50.472;19.744;2023-07-16T05:55:10;97909.27;;;24.78;75.60
50302;BME280;36550;50.472;19.744;2023-07-16T05:57:54;97907.81;;;25.17;74.39
50302;BME280;36550;50.472;19.744;2023-07-16T06:00:38;97909.55;;;25.31;73.37
50302;BME280;36550;50.472;19.744;2023-07-16T06:03:23;97915.18;;;25.35;72.71
50302;BME280;36550;50.472;19.744;2023-07-16T06:06:11;97919.30;;;25.36;71.93
50302;BME280;36550;50.472;19.744;2023-07-16T06:08:55;97922.29;;;25.38;71.17
50302;BME280;36550;50.472;19.744;2023-07-16T06:11:39;97919.85;;;25.42;70.43
50302;BME280;36550;50.472;19.744;2023-07-16T06:14:23;97924.09;;;25.44;70.07
50302;BME280;36550;50.472;19.744;2023-07-16T06:17:07;97926.89;;;25.48;69.19
50302;BME280;36550;50.472;19.744;2023-07-16T06:19:51;97927.80;;;25.53;67.97
50302;BME280;36550;50.472;19.744;2023-07-16T06:22:36;97931.29;;;25.58;67.42
50302;BME280;36550;50.472;19.744;2023-07-16T06:25:20;97934.61;;;25.64;67.39
50302;BME280;36550;50.472;19.744;2023-07-16T06:28:04;97934.39;;;25.68;67.25
50302;BME280;36550;50.472;19.744;2023-07-16T06:30:50;97943.23;;;25.71;66.85
50302;BME280;36550;50.472;19.744;2023-07-16T06:33:35;97949.66;;;25.76;66.65
50302;BME280;36550;50.472;19.744;2023-07-16T06:36:19;97949.37;;;25.79;66.32
50302;BME280;36550;50.472;19.744;2023-07-16T06:39:04;97956.67;;;25.84;66.10
50302;BME280;36550;50.472;19.744;2023-07-16T06:41:48;97961.06;;;25.89;65.30
50302;BME280;36550;50.472;19.744;2023-07-16T06:44:33;97966.77;;;25.95;65.03
50302;BME280;36550;50.472;19.744;2023-07-16T06:47:17;97974.66;;;26.01;64.23
50302;BME280;36550;50.472;19.744;2023-07-16T06:50:02;97982.17;;;26.10;64.03
50302;BME280;36550;50.472;19.744;2023-07-16T06:53:11;97983.87;;;26.16;63.71
50302;BME280;36550;50.472;19.744;2023-07-16T06:55:55;97990.45;;;26.22;63.15
50302;BME280;36550;50.472;19.744;2023-07-16T06:58:39;97994.16;;;26.28;62.71
50302;BME280;36550;50.472;19.744;2023-07-16T07:01:23;97991.23;;;26.33;61.94
50302;BME280;36550;50.472;19.744;2023-07-16T07:04:08;97992.27;;;26.37;61.71
50302;BME280;36550;50.472;19.744;2023-07-16T07:06:53;97993.52;;;26.43;61.46
50302;BME280;36550;50.472;19.744;2023-07-16T07:09:36;97999.92;;;26.48;61.19
50302;BME280;36550;50.472;19.744;2023-07-16T07:12:20;97996.71;;;26.55;61.12
50302;BME280;36550;50.472;19.744;2023-07-16T07:15:07;97995.59;;;26.61;60.49
50302;BME280;36550;50.472;19.744;2023-07-16T07:17:52;97993.24;;;26.66;60.10
50302;BME280;36550;50.472;19.744;2023-07-16T07:20:36;97999.84;;;26.74;60.03
50302;BME280;36550;50.472;19.744;2023-07-16T07:23:20;98004.20;;;26.82;59.57
50302;BME280;36550;50.472;19.744;2023-07-16T07:26:04;98013.33;;;26.89;59.47
50302;BME280;36550;50.472;19.744;2023-07-16T07:28:48;98013.15;;;26.94;59.03
50302;BME280;36550;50.472;19.744;2023-07-16T07:31:32;98012.31;;;27.00;58.78
50302;BME280;36550;50.472;19.744;2023-07-16T07:34:16;98012.91;;;27.02;58.73
50302;BME280;36550;50.472;19.744;2023-07-16T07:37:00;98013.55;;;27.02;58.18
50302;BME280;36550;50.472;19.744;2023-07-16T07:39:43;98014.11;;;27.06;57.94
50302;BME280;36550;50.472;19.744;2023-07-16T07:42:31;98010.17;;;27.08;57.13
50302;BME280;36550;50.472;19.744;2023-07-16T07:45:15;98010.41;;;27.13;57.17
50302;BME280;36550;50.472;19.744;2023-07-16T07:47:59;98009.79;;;27.18;57.17
50302;BME280;36550;50.472;19.744;2023-07-16T07:50:43;98007.67;;;27.24;56.77
50302;BME280;36550;50.472;19.744;2023-07-16T07:53:27;98009.66;;;27.29;56.92
50302;BME280;36550;50.472;19.744;2023-07-16T07:56:11;98008.36;;;27.35;57.02
50302;BME280;36550;50.472;19.744;2023-07-16T07:58:56;98008.80;;;27.40;56.79
50302;BME280;36550;50.472;19.744;2023-07-16T08:01:40;98005.98;;;27.44;56.43
50302;BME280;36550;50.472;19.744;2023-07-16T08:04:24;98009.59;;;27.50;56.16
50302;BME280;36550;50.472;19.744;2023-07-16T08:07:08;98011.38;;;27.57;56.07
50302;BME280;36550;50.472;19.744;2023-07-16T08:09:52;98010.98;;;27.63;55.32
50302;BME280;36550;50.472;19.744;2023-07-16T08:12:36;98008.88;;;27.68;55.25
50302;BME280;36550;50.472;19.744;2023-07-16T08:15:20;98010.38;;;27.70;55.22
50302;BME280;36550;50.472;19.744;2023-07-16T08:18:05;98011.30;;;27.72;55.21
50302;BME280;36550;50.472;19.744;2023-07-16T08:20:49;98014.35;;;27.77;55.47
50302;BME280;36550;50.472;19.744;2023-07-16T08:23:33;98018.05;;;27.81;55.44
50302;BME280;36550;50.472;19.744;2023-07-16T08:26:17;98018.98;;;27.81;55.33
50302;BME280;36550;50.472;19.744;2023-07-16T08:29:01;98017.88;;;27.82;55.48
50302;BME280;36550;50.472;19.744;2023-07-16T08:31:46;98017.75;;;27.84;55.73
50302;BME280;36550;50.472;19.744;2023-07-16T08:34:30;98021.59;;;27.87;55.89
50302;BME280;36550;50.472;19.744;2023-07-16T08:37:14;98022.30;;;27.90;55.73
50302;BME280;36550;50.472;19.744;2023-07-16T08:39:58;98023.51;;;27.92;55.49
50302;BME280;36550;50.472;19.744;2023-07-16T08:42:44;98024.27;;;27.95;55.55
50302;BME280;36550;50.472;19.744;2023-07-16T08:45:29;98021.59;;;27.99;55.72
50302;BME280;36550;50.472;19.744;2023-07-16T08:48:14;98019.82;;;28.02;55.73
50302;BME280;36550;50.472;19.744;2023-07-16T08:51:01;98023.76;;;28.06;55.87
50302;BME280;36550;50.472;19.744;2023-07-16T08:53:46;98024.92;;;28.06;55.37
50302;BME280;36550;50.472;19.744;2023-07-16T08:56:30;98018.64;;;28.04;55.58
50302;BME280;36550;50.472;19.744;2023-07-16T08:59:15;98018.09;;;28.07;55.84
50302;BME280;36550;50.472;19.744;2023-07-16T09:02:00;98014.40;;;28.08;55.79
50302;BME280;36550;50.472;19.744;2023-07-16T09:04:48;98012.48;;;28.08;56.02
50302;BME280;36550;50.472;19.744;2023-07-16T09:07:33;98011.31;;;28.07;55.92
50302;BME280;36550;50.472;19.744;2023-07-16T09:10:20;98012.99;;;28.10;56.16
50302;BME280;36550;50.472;19.744;2023-07-16T09:13:04;98011.18;;;28.15;56.09
50302;BME280;36550;50.472;19.744;2023-07-16T09:15:51;98012.41;;;28.22;56.41
50302;BME280;36550;50.472;19.744;2023-07-16T09:18:35;98011.91;;;28.27;56.35
50302;BME280;36550;50.472;19.744;2023-07-16T09:21:19;98007.33;;;28.33;56.53
50302;BME280;36550;50.472;19.744;2023-07-16T09:24:09;98009.69;;;28.38;56.36
50302;BME280;36550;50.472;19.744;2023-07-16T09:26:54;98012.05;;;28.45;56.21
50302;BME280;36550;50.472;19.744;2023-07-16T09:29:44;98013.70;;;28.49;56.35
50302;BME280;36550;50.472;19.744;2023-07-16T09:32:35;98011.85;;;28.49;56.09
50302;BME280;36550;50.472;19.744;2023-07-16T09:35:20;98017.27;;;28.50;56.29
50302;BME280;36550;50.472;19.744;2023-07-16T09:38:04;98016.11;;;28.53;56.71
50302;BME280;36550;50.472;19.744;2023-07-16T09:40:48;98011.94;;;28.59;56.61
50302;BME280;36550;50.472;19.744;2023-07-16T09:43:33;98014.11;;;28.67;56.38
50302;BME280;36550;50.472;19.744;2023-07-16T09:46:17;98014.24;;;28.73;56.54
50302;BME280;36550;50.472;19.744;2023-07-16T09:49:01;98017.06;;;28.79;56.64
50302;BME280;36550;50.472;19.744;2023-07-16T09:51:47;98014.02;;;28.85;56.45
50302;BME280;36550;50.472;19.744;2023-07-16T09:54:35;98011.52;;;28.96;56.40
50302;BME280;36550;50.472;19.744;2023-07-16T09:57:22;98010.47;;;29.09;56.46
50302;BME280;36550;50.472;19.744;2023-07-16T10:00:09;98007.66;;;29.23;56.43
50302;BME280;36550;50.472;19.744;2023-07-16T10:02:57;98008.93;;;29.33;56.46
50302;BME280;36550;50.472;19.744;2023-07-16T10:05:41;98014.86;;;29.41;56.05
50302;BME280;36550;50.472;19.744;2023-07-16T10:08:25;98014.97;;;29.43;55.85
50302;BME280;36550;50.472;19.744;2023-07-16T10:11:18;98015.48;;;29.42;55.71
50302;BME280;36550;50.472;19.744;2023-07-16T10:14:02;98015.88;;;29.37;55.31
50302;BME280;36550;50.472;19.744;2023-07-16T10:16:47;98015.42;;;29.33;55.48
50302;BME280;36550;50.472;19.744;2023-07-16T10:19:45;98009.63;;;29.29;55.50
50302;BME280;36550;50.472;19.744;2023-07-16T10:22:46;98011.40;;;29.29;55.60
50302;BME280;36550;50.472;19.744;2023-07-16T10:25:30;98011.89;;;29.30;55.49
50302;BME280;36550;50.472;19.744;2023-07-16T10:28:15;98012.80;;;29.30;55.43
50302;BME280;36550;50.472;19.744;2023-07-16T10:31:00;98013.98;;;29.31;55.56
50302;BME280;36550;50.472;19.744;2023-07-16T10:34:02;98017.05;;;29.29;55.51
50302;BME280;36550;50.472;19.744;2023-07-16T10:36:50;98015.46;;;29.27;55.33
50302;BME280;36550;50.472;19.744;2023-07-16T10:39:34;98014.98;;;29.26;55.18
50302;BME280;36550;50.472;19.744;2023-07-16T10:42:19;98017.02;;;29.27;55.04
50302;BME280;36550;50.472;19.744;2023-07-16T10:45:06;98014.73;;;29.26;54.77
50302;BME280;36550;50.472;19.744;2023-07-16T10:47:53;98012.46;;;29.24;54.89
50302;BME280;36550;50.472;19.744;2023-07-16T10:50:38;98013.37;;;29.23;54.99
50302;BME280;36550;50.472;19.744;2023-07-16T10:53:22;98014.22;;;29.18;55.11
50302;BME280;36550;50.472;19.744;2023-07-16T10:56:06;98019.84;;;29.17;55.16
50302;BME280;36550;50.472;19.744;2023-07-16T10:58:50;98015.18;;;29.16;55.02
50302;BME280;36550;50.472;19.744;2023-07-16T11:01:35;98014.45;;;29.18;55.15
50302;BME280;36550;50.472;19.744;2023-07-16T11:04:20;98013.90;;;29.27;55.37
50302;BME280;36550;50.472;19.744;2023-07-16T11:07:08;98016.33;;;29.37;55.06
50302;BME280;36550;50.472;19.744;2023-07-16T11:09:54;98019.98;;;29.51;55.14
50302;BME280;36550;50.472;19.744;2023-07-16T11:12:38;98018.02;;;29.59;54.53
50302;BME280;36550;50.472;19.744;2023-07-16T11:15:32;98021.02;;;29.66;54.14
50302;BME280;36550;50.472;19.744;2023-07-16T11:18:17;98020.54;;;29.74;53.81
50302;BME280;36550;50.472;19.744;2023-07-16T11:21:03;98022.40;;;29.84;53.65
50302;BME280;36550;50.472;19.744;2023-07-16T11:23:47;98026.79;;;29.92;53.11
50302;BME280;36550;50.472;19.744;2023-07-16T11:26:31;98028.87;;;29.97;52.71
50302;BME280;36550;50.472;19.744;2023-07-16T11:29:14;98027.62;;;29.95;52.23
50302;BME280;36550;50.472;19.744;2023-07-16T11:31:59;98025.67;;;29.90;51.98
50302;BME280;36550;50.472;19.744;2023-07-16T11:34:56;98022.42;;;29.84;52.22
50302;BME280;36550;50.472;19.744;2023-07-16T11:37:40;98023.14;;;29.81;52.30
50302;BME280;36550;50.472;19.744;2023-07-16T11:40:24;98025.67;;;29.76;52.26
50302;BME280;36550;50.472;19.744;2023-07-16T11:43:12;98024.32;;;29.69;52.27
50302;BME280;36550;50.472;19.744;2023-07-16T11:45:56;98021.14;;;29.65;52.63
50302;BME280;36550;50.472;19.744;2023-07-16T11:48:40;98018.56;;;29.59;52.89
50302;BME280;36550;50.472;19.744;2023-07-16T11:51:27;98019.25;;;29.53;52.97
50302;BME280;36550;50.472;19.744;2023-07-16T11:54:11;98017.35;;;29.47;52.94
50302;BME280;36550;50.472;19.744;2023-07-16T11:56:55;98017.01;;;29.40;53.03
50302;BME280;36550;50.472;19.744;2023-07-16T11:59:39;98012.98;;;29.40;53.16
50302;BME280;36550;50.472;19.744;2023-07-16T12:02:25;98012.76;;;29.40;53.10
50302;BME280;36550;50.472;19.744;2023-07-16T12:05:09;98011.30;;;29.41;53.21
50302;BME280;36550;50.472;19.744;2023-07-16T12:07:53;98012.92;;;29.40;52.99
50302;BME280;36550;50.472;19.744;2023-07-16T12:11:24;98011.91;;;29.41;53.37
50302;BME280;36550;50.472;19.744;2023-07-16T12:14:08;98011.27;;;29.40;53.07
50302;BME280;36550;50.472;19.744;2023-07-16T12:16:52;98003.44;;;29.37;53.13
50302;BME280;36550;50.472;19.744;2023-07-16T12:19:37;98006.75;;;29.32;53.01
50302;BME280;36550;50.472;19.744;2023-07-16T12:22:21;98005.83;;;29.28;53.05
50302;BME280;36550;50.472;19.744;2023-07-16T12:25:06;98010.30;;;29.27;53.04
50302;BME280;36550;50.472;19.744;2023-07-16T12:27:50;98008.20;;;29.27;52.65
50302;BME280;36550;50.472;19.744;2023-07-16T12:30:34;98009.80;;;29.30;52.39
50302;BME280;36550;50.472;19.744;2023-07-16T12:33:18;98009.25;;;29.33;52.12
50302;BME280;36550;50.472;19.744;2023-07-16T12:36:02;98008.21;;;29.36;52.23
50302;BME280;36550;50.472;19.744;2023-07-16T12:38:46;98009.08;;;29.37;52.17
50302;BME280;36550;50.472;19.744;2023-07-16T12:41:30;98003.80;;;29.36;51.98
50302;BME280;36550;50.472;19.744;2023-07-16T12:44:14;98003.05;;;29.37;51.71
50302;BME280;36550;50.472;19.744;2023-07-16T12:47:00;98000.19;;;29.36;51.91
50302;BME280;36550;50.472;19.744;2023-07-16T12:49:44;97998.33;;;29.37;51.85
50302;BME280;36550;50.472;19.744;2023-07-16T12:52:28;97996.81;;;29.38;51.61
50302;BME280;36550;50.472;19.744;2023-07-16T12:55:12;97995.79;;;29.37;51.42
50302;BME280;36550;50.472;19.744;2023-07-16T12:57:57;97991.80;;;29.34;51.26
50302;BME280;36550;50.472;19.744;2023-07-16T13:00:41;97991.32;;;29.33;51.16
50302;BME280;36550;50.472;19.744;2023-07-16T13:03:25;97989.52;;;29.32;51.14
50302;BME280;36550;50.472;19.744;2023-07-16T13:06:10;97984.42;;;29.31;51.22
50302;BME280;36550;50.472;19.744;2023-07-16T13:08:54;97983.65;;;29.31;51.04
50302;BME280;36550;50.472;19.744;2023-07-16T13:11:38;97978.10;;;29.28;51.11
50302;BME280;36550;50.472;19.744;2023-07-16T13:14:22;97983.01;;;29.26;51.14
50302;BME280;36550;50.472;19.744;2023-07-16T13:17:06;97982.36;;;29.25;50.93
50302;BME280;36550;50.472;19.744;2023-07-16T13:19:50;97985.91;;;29.24;50.60
50302;BME280;36550;50.472;19.744;2023-07-16T13:22:33;97987.91;;;29.24;50.75
50302;BME280;36550;50.472;19.744;2023-07-16T13:25:18;97984.08;;;29.26;50.70
50302;BME280;36550;50.472;19.744;2023-07-16T13:28:02;97984.42;;;29.27;50.34
50302;BME280;36550;50.472;19.744;2023-07-16T13:30:46;97986.90;;;29.28;50.40
50302;BME280;36550;50.472;19.744;2023-07-16T13:33:31;97984.55;;;29.34;50.56
50302;BME280;36550;50.472;19.744;2023-07-16T13:36:15;97983.27;;;29.36;50.63
50302;BME280;36550;50.472;19.744;2023-07-16T13:38:59;97981.35;;;29.42;50.49
50302;BME280;36550;50.472;19.744;2023-07-16T13:41:43;97986.06;;;29.51;50.39
50302;BME280;36550;50.472;19.744;2023-07-16T13:44:27;97983.79;;;29.58;49.99
50302;BME280;36550;50.472;19.744;2023-07-16T13:47:11;97982.45;;;29.65;50.22
50302;BME280;36550;50.472;19.744;2023-07-16T13:49:55;97986.45;;;29.73;50.33
50302;BME280;36550;50.472;19.744;2023-07-16T13:52:39;97986.18;;;29.81;50.11
50302;BME280;36550;50.472;19.744;2023-07-16T13:55:23;97985.05;;;29.88;50.15
50302;BME280;36550;50.472;19.744;2023-07-16T13:58:07;97984.52;;;29.93;50.34
50302;BME280;36550;50.472;19.744;2023-07-16T14:00:51;97985.11;;;29.96;50.29
50302;BME280;36550;50.472;19.744;2023-07-16T14:03:35;97986.69;;;29.99;50.10
50302;BME280;36550;50.472;19.744;2023-07-16T14:06:19;97984.70;;;30.01;49.73
50302;BME280;36550;50.472;19.744;2023-07-16T14:09:04;97985.01;;;30.00;49.58
50302;BME280;36550;50.472;19.744;2023-07-16T14:11:49;97990.27;;;30.00;49.33
50302;BME280;36550;50.472;19.744;2023-07-16T14:14:33;97991.22;;;30.01;49.62
50302;BME280;36550;50.472;19.744;2023-07-16T14:17:18;97990.45;;;30.02;49.85
50302;BME280;36550;50.472;19.744;2023-07-16T14:20:05;97992.23;;;30.02;49.77
50302;BME280;36550;50.472;19.744;2023-07-16T14:22:50;97993.08;;;30.02;49.79
50302;BME280;36550;50.472;19.744;2023-07-16T14:25:34;97989.55;;;29.99;49.52